Terminal Aerodrome Forecast
Issued by NWS

Home | Current Version | Previous Version | Text Only | Print | Product List | Glossary On
Versions: 1 2 3 4 5 6 7 8 9 10 11 12 13 14 15 16 17 18 19
000
FTUS43 KEAX 170400 AAB
TAFMKC
TAF AMD
KMKC 170430Z 1705/1724 VRB06KT P6SM BKN015
      TEMPO 1705/1707 SCT015 SCT100
     FM170700 VRB06KT P6SM SCT120=

USA.gov is the U.S. government's official web portal to all federal, state and local government web resources and services.